sensor_id;sensor_type;location;lat;lon;timestamp;P1;durP1;ratioP1;P2;durP2;ratioP2
56631;SDS011;42503;39.928;-75.152;2023-05-23T00:00:41;9.43;;;7.50;;
56631;SDS011;42503;39.928;-75.152;2023-05-23T00:10:42;9.25;;;8.20;;
56631;SDS011;42503;39.928;-75.152;2023-05-23T00:20:46;9.40;;;8.02;;
56631;SDS011;42503;39.928;-75.152;2023-05-23T00:30:48;9.80;;;8.20;;
56631;SDS011;42503;39.928;-75.152;2023-05-23T00:40:49;9.68;;;7.47;;
56631;SDS011;42503;39.928;-75.152;2023-05-23T00:50:51;8.70;;;7.80;;
56631;SDS011;42503;39.928;-75.152;2023-05-23T01:00:53;10.50;;;8.68;;
56631;SDS011;42503;39.928;-75.152;2023-05-23T01:10:56;9.93;;;8.93;;
56631;SDS011;42503;39.928;-75.152;2023-05-23T01:21:08;9.57;;;8.10;;
56631;SDS011;42503;39.928;-75.152;2023-05-23T01:31:17;9.63;;;8.63;;
56631;SDS011;42503;39.928;-75.152;2023-05-23T01:41:24;9.85;;;8.20;;
56631;SDS011;42503;39.928;-75.152;2023-05-23T01:51:28;9.50;;;8.50;;
56631;SDS011;42503;39.928;-75.152;2023-05-23T02:01:30;9.05;;;8.15;;
56631;SDS011;42503;39.928;-75.152;2023-05-23T02:11:31;9.23;;;8.32;;
56631;SDS011;42503;39.928;-75.152;2023-05-23T02:21:33;10.98;;;8.45;;
56631;SDS011;42503;39.928;-75.152;2023-05-23T02:31:35;12.02;;;8.82;;
56631;SDS011;42503;39.928;-75.152;2023-05-23T02:41:38;9.43;;;8.43;;
56631;SDS011;42503;39.928;-75.152;2023-05-23T02:51:43;9.75;;;8.45;;
56631;SDS011;42503;39.928;-75.152;2023-05-23T03:01:50;9.45;;;8.40;;
56631;SDS011;42503;39.928;-75.152;2023-05-23T03:11:51;9.85;;;8.30;;
56631;SDS011;42503;39.928;-75.152;2023-05-23T03:21:52;11.35;;;9.45;;
56631;SDS011;42503;39.928;-75.152;2023-05-23T03:31:53;10.43;;;8.73;;
56631;SDS011;42503;39.928;-75.152;2023-05-23T03:41:55;8.48;;;7.38;;
56631;SDS011;42503;39.928;-75.152;2023-05-23T03:51:56;9.63;;;8.48;;
56631;SDS011;42503;39.928;-75.152;2023-05-23T04:01:58;9.98;;;8.65;;
56631;SDS011;42503;39.928;-75.152;2023-05-23T04:12:00;12.07;;;8.73;;
56631;SDS011;42503;39.928;-75.152;2023-05-23T04:22:04;11.10;;;9.18;;
56631;SDS011;42503;39.928;-75.152;2023-05-23T04:32:06;9.05;;;7.80;;
56631;SDS011;42503;39.928;-75.152;2023-05-23T04:42:07;9.73;;;8.60;;
56631;SDS011;42503;39.928;-75.152;2023-05-23T04:52:09;9.07;;;8.18;;
56631;SDS011;42503;39.928;-75.152;2023-05-23T05:02:10;11.65;;;8.85;;
56631;SDS011;42503;39.928;-75.152;2023-05-23T05:12:11;11.55;;;9.27;;
56631;SDS011;42503;39.928;-75.152;2023-05-23T05:22:13;11.52;;;9.00;;
56631;SDS011;42503;39.928;-75.152;2023-05-23T05:32:14;11.77;;;8.77;;
56631;SDS011;42503;39.928;-75.152;2023-05-23T05:42:16;9.93;;;8.70;;
56631;SDS011;42503;39.928;-75.152;2023-05-23T05:52:17;10.10;;;9.00;;
56631;SDS011;42503;39.928;-75.152;2023-05-23T06:02:18;11.35;;;9.18;;
56631;SDS011;42503;39.928;-75.152;2023-05-23T06:12:20;10.98;;;9.00;;
56631;SDS011;42503;39.928;-75.152;2023-05-23T06:22:24;10.80;;;8.80;;
56631;SDS011;42503;39.928;-75.152;2023-05-23T06:32:25;13.95;;;8.50;;
56631;SDS011;42503;39.928;-75.152;2023-05-23T06:42:27;11.90;;;8.80;;
56631;SDS011;42503;39.928;-75.152;2023-05-23T06:52:29;9.85;;;8.57;;
56631;SDS011;42503;39.928;-75.152;2023-05-23T07:02:33;13.27;;;9.02;;
56631;SDS011;42503;39.928;-75.152;2023-05-23T07:12:34;10.93;;;8.85;;
56631;SDS011;42503;39.928;-75.152;2023-05-23T07:22:36;10.55;;;8.63;;
56631;SDS011;42503;39.928;-75.152;2023-05-23T07:32:37;12.15;;;8.82;;
56631;SDS011;42503;39.928;-75.152;2023-05-23T07:42:38;10.13;;;8.63;;
56631;SDS011;42503;39.928;-75.152;2023-05-23T07:52:40;14.10;;;8.93;;
56631;SDS011;42503;39.928;-75.152;2023-05-23T08:02:44;11.20;;;8.70;;
56631;SDS011;42503;39.928;-75.152;2023-05-23T08:12:45;10.00;;;8.13;;
56631;SDS011;42503;39.928;-75.152;2023-05-23T08:22:46;13.02;;;8.85;;
56631;SDS011;42503;39.928;-75.152;2023-05-23T08:32:51;10.48;;;8.23;;
56631;SDS011;42503;39.928;-75.152;2023-05-23T08:42:56;10.73;;;8.75;;
56631;SDS011;42503;39.928;-75.152;2023-05-23T08:52:57;8.98;;;7.55;;
56631;SDS011;42503;39.928;-75.152;2023-05-23T09:03:02;11.10;;;7.78;;
56631;SDS011;42503;39.928;-75.152;2023-05-23T09:13:04;8.80;;;7.60;;
56631;SDS011;42503;39.928;-75.152;2023-05-23T09:23:05;10.00;;;8.15;;
56631;SDS011;42503;39.928;-75.152;2023-05-23T09:33:07;11.35;;;8.77;;
56631;SDS011;42503;39.928;-75.152;2023-05-23T09:43:09;8.65;;;7.75;;
56631;SDS011;42503;39.928;-75.152;2023-05-23T09:53:10;10.10;;;7.88;;
56631;SDS011;42503;39.928;-75.152;2023-05-23T10:03:12;11.13;;;7.85;;
56631;SDS011;42503;39.928;-75.152;2023-05-23T10:13:17;11.30;;;8.45;;
56631;SDS011;42503;39.928;-75.152;2023-05-23T10:23:19;10.55;;;7.80;;
56631;SDS011;42503;39.928;-75.152;2023-05-23T10:33:21;10.27;;;7.97;;
56631;SDS011;42503;39.928;-75.152;2023-05-23T10:53:51;9.95;;;7.50;;
56631;SDS011;42503;39.928;-75.152;2023-05-23T11:03:54;8.73;;;7.17;;
56631;SDS011;42503;39.928;-75.152;2023-05-23T11:13:56;9.80;;;7.20;;
56631;SDS011;42503;39.928;-75.152;2023-05-23T11:23:59;9.77;;;7.22;;
56631;SDS011;42503;39.928;-75.152;2023-05-23T11:34:01;8.88;;;7.32;;
56631;SDS011;42503;39.928;-75.152;2023-05-23T11:44:09;11.30;;;7.95;;
56631;SDS011;42503;39.928;-75.152;2023-05-23T11:54:16;9.65;;;7.93;;
56631;SDS011;42503;39.928;-75.152;2023-05-23T12:04:23;9.45;;;7.57;;
56631;SDS011;42503;39.928;-75.152;2023-05-23T12:14:28;10.63;;;7.40;;
56631;SDS011;42503;39.928;-75.152;2023-05-23T12:24:30;8.93;;;7.05;;
56631;SDS011;42503;39.928;-75.152;2023-05-23T12:34:31;12.63;;;7.47;;
56631;SDS011;42503;39.928;-75.152;2023-05-23T12:44:33;9.90;;;7.47;;
56631;SDS011;42503;39.928;-75.152;2023-05-23T12:54:35;8.98;;;6.57;;
56631;SDS011;42503;39.928;-75.152;2023-05-23T13:04:36;8.98;;;7.38;;
56631;SDS011;42503;39.928;-75.152;2023-05-23T13:14:40;10.25;;;7.65;;
56631;SDS011;42503;39.928;-75.152;2023-05-23T13:24:44;7.78;;;6.53;;
56631;SDS011;42503;39.928;-75.152;2023-05-23T13:34:45;9.60;;;7.20;;
56631;SDS011;42503;39.928;-75.152;2023-05-23T13:44:47;9.30;;;6.95;;
56631;SDS011;42503;39.928;-75.152;2023-05-23T13:54:51;9.45;;;6.63;;
56631;SDS011;42503;39.928;-75.152;2023-05-23T14:04:55;8.67;;;6.97;;
56631;SDS011;42503;39.928;-75.152;2023-05-23T14:14:56;9.18;;;7.20;;
56631;SDS011;42503;39.928;-75.152;2023-05-23T14:24:58;12.25;;;7.50;;
56631;SDS011;42503;39.928;-75.152;2023-05-23T14:35:02;10.30;;;7.35;;
56631;SDS011;42503;39.928;-75.152;2023-05-23T14:45:03;8.00;;;6.30;;
56631;SDS011;42503;39.928;-75.152;2023-05-23T14:55:06;8.98;;;6.68;;
56631;SDS011;42503;39.928;-75.152;2023-05-23T15:05:07;8.27;;;7.00;;
56631;SDS011;42503;39.928;-75.152;2023-05-23T15:15:09;7.65;;;6.38;;
56631;SDS011;42503;39.928;-75.152;2023-05-23T15:25:11;8.65;;;6.53;;
56631;SDS011;42503;39.928;-75.152;2023-05-23T15:35:12;8.38;;;6.85;;
56631;SDS011;42503;39.928;-75.152;2023-05-23T15:45:14;8.32;;;6.85;;
56631;SDS011;42503;39.928;-75.152;2023-05-23T15:55:15;7.43;;;6.13;;
56631;SDS011;42503;39.928;-75.152;2023-05-23T16:05:19;10.45;;;7.20;;
56631;SDS011;42503;39.928;-75.152;2023-05-23T16:15:20;8.13;;;6.47;;
56631;SDS011;42503;39.928;-75.152;2023-05-23T16:25:22;10.70;;;7.13;;
56631;SDS011;42503;39.928;-75.152;2023-05-23T16:35:23;7.63;;;6.07;;
56631;SDS011;42503;39.928;-75.152;2023-05-23T16:45:27;8.25;;;6.18;;
56631;SDS011;42503;39.928;-75.152;2023-05-23T16:55:31;8.07;;;6.07;;
56631;SDS011;42503;39.928;-75.152;2023-05-23T17:05:33;7.55;;;6.13;;
56631;SDS011;42503;39.928;-75.152;2023-05-23T17:15:34;8.00;;;6.28;;
56631;SDS011;42503;39.928;-75.152;2023-05-23T17:25:36;9.93;;;7.10;;
56631;SDS011;42503;39.928;-75.152;2023-05-23T17:35:43;6.72;;;6.00;;
56631;SDS011;42503;39.928;-75.152;2023-05-23T17:45:48;8.23;;;6.60;;
56631;SDS011;42503;39.928;-75.152;2023-05-23T17:55:49;7.93;;;6.65;;
56631;SDS011;42503;39.928;-75.152;2023-05-23T18:05:50;8.63;;;6.40;;
56631;SDS011;42503;39.928;-75.152;2023-05-23T18:15:52;7.53;;;6.30;;
56631;SDS011;42503;39.928;-75.152;2023-05-23T18:25:53;8.93;;;6.78;;
56631;SDS011;42503;39.928;-75.152;2023-05-23T18:35:54;9.63;;;6.60;;
56631;SDS011;42503;39.928;-75.152;2023-05-23T18:45:56;9.18;;;6.85;;
56631;SDS011;42503;39.928;-75.152;2023-05-23T18:56:00;9.70;;;6.75;;
56631;SDS011;42503;39.928;-75.152;2023-05-23T19:06:02;8.13;;;6.35;;
56631;SDS011;42503;39.928;-75.152;2023-05-23T19:16:03;9.52;;;7.05;;
56631;SDS011;42503;39.928;-75.152;2023-05-23T19:26:05;9.60;;;6.63;;
56631;SDS011;42503;39.928;-75.152;2023-05-23T19:36:09;7.40;;;6.57;;
56631;SDS011;42503;39.928;-75.152;2023-05-23T19:46:13;8.30;;;6.65;;
56631;SDS011;42503;39.928;-75.152;2023-05-23T19:56:15;11.85;;;7.60;;
56631;SDS011;42503;39.928;-75.152;2023-05-23T20:06:17;9.40;;;7.20;;
56631;SDS011;42503;39.928;-75.152;2023-05-23T20:16:18;7.68;;;5.97;;
56631;SDS011;42503;39.928;-75.152;2023-05-23T20:26:20;8.85;;;7.00;;
56631;SDS011;42503;39.928;-75.152;2023-05-23T20:36:22;7.47;;;6.68;;
56631;SDS011;42503;39.928;-75.152;2023-05-23T20:46:26;10.02;;;6.70;;
56631;SDS011;42503;39.928;-75.152;2023-05-23T20:56:31;8.13;;;6.80;;
56631;SDS011;42503;39.928;-75.152;2023-05-23T21:06:33;7.57;;;6.53;;
56631;SDS011;42503;39.928;-75.152;2023-05-23T21:16:34;9.98;;;7.45;;
56631;SDS011;42503;39.928;-75.152;2023-05-23T21:26:36;9.73;;;6.82;;
56631;SDS011;42503;39.928;-75.152;2023-05-23T21:36:39;9.73;;;6.97;;
56631;SDS011;42503;39.928;-75.152;2023-05-23T21:46:44;8.00;;;6.10;;
56631;SDS011;42503;39.928;-75.152;2023-05-23T21:56:45;8.60;;;6.90;;
56631;SDS011;42503;39.928;-75.152;2023-05-23T22:06:46;7.22;;;6.22;;
56631;SDS011;42503;39.928;-75.152;2023-05-23T22:16:47;9.20;;;5.95;;
56631;SDS011;42503;39.928;-75.152;2023-05-23T22:26:49;7.18;;;5.75;;
56631;SDS011;42503;39.928;-75.152;2023-05-23T22:36:51;9.48;;;5.97;;
56631;SDS011;42503;39.928;-75.152;2023-05-23T22:46:52;9.15;;;5.80;;
56631;SDS011;42503;39.928;-75.152;2023-05-23T22:56:54;8.85;;;6.10;;
56631;SDS011;42503;39.928;-75.152;2023-05-23T23:06:55;7.70;;;5.72;;
56631;SDS011;42503;39.928;-75.152;2023-05-23T23:16:58;7.20;;;5.47;;
56631;SDS011;42503;39.928;-75.152;2023-05-23T23:27:00;8.98;;;5.70;;
56631;SDS011;42503;39.928;-75.152;2023-05-23T23:37:01;7.50;;;5.20;;
56631;SDS011;42503;39.928;-75.152;2023-05-23T23:47:03;10.25;;;5.72;;
56631;SDS011;42503;39.928;-75.152;2023-05-23T23:57:07;8.32;;;5.45;;
